Historyczne dane pomiarowe

Dodano dane terminowe – wersja testowa.

Dane z okresu 1951-2019

Wersja bazy: 1.34 [2019-03-16, lista zmian], aktualizacja planowana na 2019-04-15

Dane meteo z obszaru Polski uzyskane na podstawie danych udostępnionych przez Instytut Meteorologii i Gospodarki Wodnej – Państwowy Instytut Badawczy.

 

Wybierz Datę:    

       

TemperaturaWilgotnośćWiatrCiśnienieOpadyŚniegCzas trwania zjawisk
 Stacja t tx tn tng RH VA  wxwx mslp ppp RRR   cm mm wxwxwxwxwxwxwx
1990-12-13 1.1 2.2 -0.2 -1.0 92.8- 8.0 2.3---- 0.4------------
1990-12-14 0.3 1.2 -0.8 -0.8 95.0- 8.0 2.7---- 2.5------------
1990-12-15 0.0 0.9 -1.2 -1.2 92.8- 8.0 2.0---- 0.0-- 2---------
1990-12-16 -0.1 0.9 -1.3 -1.3 92.5- 8.0 2.7---- 0.1-- 1---------
1990-12-17 -1.0 -0.1 -2.9 -2.9 88.3- 8.0 2.3---- 0.0-- 1---------
1990-12-18 -0.9 -0.3 -2.0 -2.0 89.0- 7.3 2.0---- 0.2-- 1---------
1990-12-19 -1.3 0.9 -3.0 -4.0 91.0- 6.0 1.3---- 0.0-- 1---------
1990-12-20 -0.6 0.5 -5.5 -8.0 87.0- 7.3 2.7---- 0.0-- 1---------
1990-12-21 2.1 2.9 -0.5 -1.3 71.8- 8.0 5.3---- 0.0-- 1---------
1990-12-22 1.7 3.9 -1.0 -2.7 77.0- 6.3 1.3---- 0.0------------
1990-12-23 -0.2 2.0 -2.7 -3.6 92.5- 3.3 1.3---- 0.0------------
1990-12-24 -2.3 2.0 -7.9-10.1 76.5- 0.0 1.0---- 0.0------------
1990-12-25 0.1 1.9 -5.5 -9.6 68.0- 0.0 4.3---- 0.0------------
1990-12-26 0.8 2.9 -1.7 -5.2 76.0- 3.0 4.0---- 0.0------------
1990-12-27 4.3 7.8 -0.3 -1.0 71.0- 7.3 3.7---- 0.0------------
1990-12-28 2.8 4.7 0.8 -6.0 64.3- 1.3 3.3---- 0.0------------
1990-12-29 3.7 5.9 0.4 -7.0 55.0- 7.7 5.0---- 0.1------------
1990-12-30 8.6 11.9 3.4 -0.6 67.8- 7.3 3.0---- 0.1------------
1990-12-31 4.5 7.3 -0.1 -2.3 78.3- 5.0 2.0---- 3.3------------
1991-01-01 2.4 6.6 -1.4 -4.5 85.3- 6.0 1.0---- 0.2------------
1991-01-02 2.7 5.7 -3.1 -8.3 80.3- 5.3 2.0---- 0.6------------
1991-01-03 8.4 10.6 3.4 -2.6 78.5- 7.3 2.3---- 1.6------------
1991-01-04 9.6 12.6 4.3 0.9 71.3- 4.3 3.0---- 0.0------------
1991-01-05 5.4 9.3 2.9 -3.2 67.5- 3.0 1.7---- 0.0------------
1991-01-06 5.1 6.8 2.4 -3.3 56.5- 4.7 3.3---- 0.0------------
1991-01-07 5.4 8.6 2.3 -6.2 57.8- 6.0 2.0---- 1.2------------
1991-01-08 6.7 8.6 1.9 -4.1 68.8- 3.3 2.0---- 0.0------------
1991-01-09 8.1 10.1 5.8 -0.5 52.5- 5.3 4.0---- 0.0------------
1991-01-10 11.5 15.2 7.1 1.6 49.8- 7.0 4.3---- 0.0------------
1991-01-11 10.2 15.2 8.2 4.6 67.8- 8.0 2.3---- 0.0------------
2301.3 ms

 

Źródłem pochodzenia danych jest Instytut Meteorologii i Gospodarki Wodnej – Państwowy Instytut Badawczy. Dane Instytutu Meteorologii i Gospodarki Wodnej – Państwowego Instytutu Badawczego zostały przetworzone.

Dane źródłowe można odnaleźć na stronie https://dane.imgw.pl